Time;durP1;ratioP1;P1;durP2;ratioP2;P2;SDS_P1;SDS_P2;PMS_P1;PMS_P2;Temp;Humidity;BMP_temperature;BMP_pressure;BME280_temperature;BME280_humidity;BME280_pressure;Samples;Min_cycle;Max_cycle;Signal;HPM_P1;HPM_P2
2023/02/12 00:00:39;;;;;;;19.98;10.85;;;;;;;-5.12;69.34;100192.44;4791751;29;20512;-82
2023/02/12 00:03:04;;;;;;;18.98;10.23;;;;;;;-5.06;69.26;100188.94;4791834;29;20043;-83
2023/02/12 00:05:31;;;;;;;16.83;9.38;;;;;;;-5.17;68.97;100170.72;4808092;29;20079;-81
2023/02/12 00:07:57;;;;;;;18.38;9.45;;;;;;;-5.24;69.17;100182.03;4788602;30;20112;-83
2023/02/12 00:10:23;;;;;;;14.70;9.07;;;;;;;-5.25;69.10;100177.72;4788985;30;20106;-82
2023/02/12 00:12:49;;;;;;;18.50;9.50;;;;;;;-5.22;69.15;100184.66;4788858;30;20113;-82
2023/02/12 00:15:15;;;;;;;19.45;9.15;;;;;;;-5.29;69.59;100191.63;4774196;30;20055;-82
2023/02/12 00:17:41;;;;;;;25.65;9.27;;;;;;;-5.41;69.11;100194.25;4790185;30;20047;-82
2023/02/12 00:20:07;;;;;;;16.75;8.68;;;;;;;-5.36;69.43;100200.31;4789284;30;20058;-82
2023/02/12 00:22:33;;;;;;;16.65;9.18;;;;;;;-5.40;69.18;100190.78;4789807;29;20054;-82
2023/02/12 00:24:58;;;;;;;16.42;8.77;;;;;;;-5.52;69.89;100183.84;4789087;30;20047;-81
2023/02/12 00:27:24;;;;;;;14.65;9.00;;;;;;;-5.52;69.87;100185.59;4775432;30;20050;-83
2023/02/12 00:29:50;;;;;;;13.57;7.72;;;;;;;-5.58;69.47;100180.38;4776980;30;20388;-83
2023/02/12 00:32:18;;;;;;;22.02;9.63;;;;;;;-5.64;69.70;100189.94;4790025;29;20059;-81
2023/02/12 00:34:46;;;;;;;14.38;8.13;;;;;;;-5.61;69.89;100191.66;4774214;29;20051;-82
2023/02/12 00:37:12;;;;;;;14.90;8.05;;;;;;;-5.73;70.39;100187.34;4773308;30;20091;-81
2023/02/12 00:39:38;;;;;;;19.50;9.32;;;;;;;-5.57;69.89;100182.97;4788857;30;20500;-82
2023/02/12 00:42:04;;;;;;;15.55;8.50;;;;;;;-5.59;69.90;100183.88;4789904;29;20047;-81
2023/02/12 00:44:30;;;;;;;19.15;9.43;;;;;;;-5.61;69.66;100184.72;4788662;30;20078;-81
2023/02/12 00:46:56;;;;;;;17.38;9.38;;;;;;;-5.56;69.62;100189.94;4791893;29;20389;-82
2023/02/12 00:49:23;;;;;;;15.50;8.05;;;;;;;-5.66;69.66;100189.06;4775101;30;20047;-81
2023/02/12 00:51:49;;;;;;;17.58;9.23;;;;;;;-5.61;69.67;100196.88;4759907;30;20047;-82
2023/02/12 00:54:15;;;;;;;16.30;8.35;;;;;;;-5.82;69.15;100197.75;4791309;29;20115;-82
2023/02/12 00:56:41;;;;;;;13.00;6.50;;;;;;;-5.90;69.30;100196.91;4789779;30;20134;-82
2023/02/12 00:59:07;;;;;;;16.00;8.25;;;;;;;-5.93;69.35;100191.72;4773611;30;20145;-81
2023/02/12 01:01:34;;;;;;;15.90;8.35;;;;;;;-5.96;69.49;100181.31;4787882;30;20050;-82
2023/02/12 01:04:02;;;;;;;16.58;8.98;;;;;;;-5.96;69.88;100194.31;4757920;30;20055;-83
2023/02/12 01:06:28;;;;;;;21.83;7.90;;;;;;;-6.01;69.70;100185.66;4787852;30;20058;-82
2023/02/12 01:08:54;;;;;;;14.77;7.60;;;;;;;-6.13;69.85;100179.56;4772613;30;20059;-83
2023/02/12 01:11:20;;;;;;;20.10;8.60;;;;;;;-6.12;69.68;100189.09;4787463;30;20054;-82
2023/02/12 01:13:47;;;;;;;16.77;8.82;;;;;;;-6.16;69.86;100181.31;4758160;30;20075;-81
2023/02/12 01:16:22;;;;;;;18.85;8.57;;;;;;;-6.16;69.87;100200.38;4787716;30;20051;-82
2023/02/12 01:18:50;;;;;;;15.63;8.02;;;;;;;-6.16;69.79;100196.91;4787409;30;20055;-82
2023/02/12 01:21:19;;;;;;;15.18;7.65;;;;;;;-6.22;69.88;100202.09;4788561;29;20059;-82
2023/02/12 01:23:46;;;;;;;;;;;;;;;-6.27;69.94;100215.09;4788862;30;20515;-81
2023/02/12 01:26:13;;;;;;;13.48;6.78;;;;;;;-6.36;70.08;100200.34;4787436;30;19964;-82
2023/02/12 01:28:40;;;;;;;14.85;7.75;;;;;;;-6.39;70.07;100215.09;4743046;30;20055;-81
2023/02/12 01:31:10;;;;;;;14.90;6.32;;;;;;;-6.47;70.74;100214.16;4787221;30;20055;-81
2023/02/12 01:33:35;;;;;;;18.25;8.05;;;;;;;-6.52;70.84;100208.09;4787415;29;20047;-82
2023/02/12 01:36:01;;;;;;;11.63;7.07;;;;;;;-6.55;70.53;100206.34;4772558;30;20051;-82
2023/02/12 01:38:27;;;;;;;18.65;8.80;;;;;;;-6.55;70.95;100202.88;4787226;30;20050;-82
2023/02/12 01:41:01;;;;;;;18.48;8.43;;;;;;;-6.51;70.74;100197.69;4786955;30;20059;-82
2023/02/12 01:43:27;;;;;;;20.30;9.00;;;;;;;-6.57;70.84;100205.50;4787648;30;20511;-81
2023/02/12 01:45:53;;;;;;;20.05;8.82;;;;;;;-6.48;70.97;100199.44;4788224;29;20036;-82
2023/02/12 01:48:22;;;;;;;21.95;8.88;;;;;;;-6.39;70.68;100209.88;4786971;29;20059;-82
2023/02/12 01:50:51;;;;;;;22.98;8.68;;;;;;;-6.38;70.58;100201.22;4786905;30;20444;-82
2023/02/12 01:53:19;;;;;;;17.03;9.27;;;;;;;-6.36;70.68;100205.56;4788090;29;20108;-82
2023/02/12 01:55:47;;;;;;;13.88;6.63;;;;;;;-6.37;70.61;100205.53;4787300;30;20105;-81
2023/02/12 01:58:14;;;;;;;19.10;9.23;;;;;;;-6.33;70.44;100209.00;4772307;30;20062;-82
2023/02/12 02:00:41;;;;;;;16.27;8.18;;;;;;;-6.41;70.72;100222.00;4786876;30;20077;-82
2023/02/12 02:03:07;;;;;;;16.42;8.50;;;;;;;-6.48;70.95;100220.25;4757115;30;20139;-81
2023/02/12 02:05:49;;;;;;;19.10;9.30;;;;;;;-6.49;70.76;100221.97;4757253;30;20141;-81
2023/02/12 02:08:15;;;;;;;21.00;8.75;;;;;;;-6.46;70.76;100209.00;4757627;30;20070;-82
2023/02/12 02:10:40;;;;;;;22.63;10.00;;;;;;;-6.40;70.78;100214.19;4787800;29;20428;-81
2023/02/12 02:15:57;;;;;;;21.98;8.88;;;;;;;-6.54;71.28;100215.00;4787925;30;20059;-82
2023/02/12 02:18:31;;;;;;;24.17;10.30;;;;;;;-6.65;71.42;100208.06;4787691;30;20051;-82
2023/02/12 02:21:11;;;;;;;25.98;11.10;;;;;;;-6.46;71.53;100231.53;4771987;30;20055;-82
2023/02/12 02:23:55;;;;;;;20.83;9.15;;;;;;;-6.51;71.29;100215.03;4771951;30;20047;-82
2023/02/12 02:26:46;;;;;;;23.85;9.40;;;;;;;-6.60;71.81;100218.47;4788368;30;20062;-82
2023/02/12 02:29:30;;;;;;;20.92;9.20;;;;;;;-6.69;72.59;100215.88;4787339;30;20051;-82
2023/02/12 02:32:20;;;;;;;23.85;9.48;;;;;;;-6.67;72.97;100219.31;4757159;30;20130;-80
2023/02/12 02:34:58;;;;;;;24.50;9.75;;;;;;;-6.74;73.30;100212.34;4786707;30;20063;-83
2023/02/12 02:37:32;;;;;;;20.85;9.48;;;;;;;-6.67;72.94;100224.53;4786986;30;20047;-80
2023/02/12 02:40:14;;;;;;;15.85;7.18;;;;;;;-6.75;73.53;100227.09;4788115;30;20500;-81
2023/02/12 02:42:51;;;;;;;21.17;8.43;;;;;;;-6.76;73.90;100214.97;4771824;30;20440;-79
2023/02/12 02:45:27;;;;;;;18.60;8.25;;;;;;;-6.85;74.33;100230.50;4787910;30;20058;-81
2023/02/12 02:48:02;;;;;;;22.33;9.32;;;;;;;-6.82;73.88;100230.53;4772108;30;20393;-81
2023/02/12 02:50:33;;;;;;;27.70;9.80;;;;;;;-6.82;74.07;100224.47;4786699;30;20055;-81
2023/02/12 02:53:05;;;;;;;22.67;10.05;;;;;;;-6.84;74.13;100214.06;4771528;30;20062;-80
2023/02/12 02:55:45;;;;;;;24.08;10.35;;;;;;;-6.74;74.05;100213.22;4771397;30;20560;-81
2023/02/12 02:58:19;;;;;;;22.30;9.70;;;;;;;-6.69;73.72;100223.66;4786238;29;20146;-82
2023/02/12 03:00:58;;;;;;;25.88;9.82;;;;;;;-6.72;73.62;100216.72;4790289;30;20055;-82
2023/02/12 03:03:31;;;;;;;24.95;9.35;;;;;;;-6.74;74.01;100230.56;4760046;30;20054;-81
2023/02/12 03:06:04;;;;;;;41.13;9.00;;;;;;;-6.74;73.99;100223.63;4774859;30;20054;-80
2023/02/12 03:08:36;;;;;;;19.88;10.00;;;;;;;-6.77;74.15;100213.22;4789494;30;20159;-82
2023/02/12 03:11:11;;;;;;;13.95;7.60;;;;;;;-6.68;74.00;100228.84;4790133;30;20051;-82
2023/02/12 03:13:43;;;;;;;27.13;11.43;;;;;;;-6.62;73.53;100223.69;4775002;30;20508;-79
2023/02/12 03:16:16;;;;;;;25.77;9.98;;;;;;;-6.72;73.77;100211.50;4789658;30;20063;-82
2023/02/12 03:18:58;;;;;;;20.90;10.10;;;;;;;-6.67;73.33;100227.97;4789616;30;20047;-81
2023/02/12 03:21:34;;;;;;;25.50;10.75;;;;;;;-6.67;73.52;100235.78;4789916;30;20043;-81
2023/02/12 03:24:22;;;;;;;26.17;11.07;;;;;;;-6.74;73.45;100230.56;4775223;30;20050;-82
2023/02/12 03:26:57;;;;;;;22.92;10.63;;;;;;;-6.71;73.35;100234.03;4790168;30;20135;-81
2023/02/12 03:29:22;;;;;;;26.48;9.90;;;;;;;-6.68;73.83;100238.41;4789851;30;20487;-81
2023/02/12 03:32:24;;;;;;;29.52;11.95;;;;;;;-6.58;73.22;100237.56;4790606;29;20083;-81
2023/02/12 03:35:03;;;;;;;28.23;13.05;;;;;;;-6.52;73.25;100228.91;4749257;30;20141;-80
2023/02/12 03:37:37;;;;;;;32.50;13.40;;;;;;;-6.50;73.00;100237.59;4789107;30;20055;-81
2023/02/12 03:40:19;;;;;;;29.77;14.68;;;;;;;-6.49;72.97;100234.13;4774785;30;20486;-81
2023/02/12 03:43:10;;;;;;;36.88;15.55;;;;;;;-6.47;72.76;100234.97;4788811;30;20055;-81
2023/02/12 03:45:42;;;;;;;37.90;15.68;;;;;;;-6.50;72.63;100227.19;4789168;30;20050;-83
2023/02/12 03:48:12;;;;;;;36.67;14.18;;;;;;;-6.49;72.53;100234.13;4759287;30;20091;-83
2023/02/12 03:50:54;;;;;;;42.88;15.77;;;;;;;-6.41;72.67;100232.41;4790356;29;20054;-83
2023/02/12 03:53:20;;;;;;;41.63;14.93;;;;;;;-6.36;72.41;100235.88;4788891;30;20496;-82
2023/02/12 03:55:50;;;;;;;43.28;18.60;;;;;;;-6.48;72.33;100215.03;4774080;30;20142;-81
2023/02/12 03:58:22;;;;;;;41.72;16.10;;;;;;;-6.45;72.57;100230.66;4790354;29;20047;-82
2023/02/12 04:00:49;;;;;;;30.05;13.25;;;;;;;-6.42;72.32;100230.69;4790911;29;20526;-84
2023/02/12 04:03:15;;;;;;;30.95;13.90;;;;;;;-6.41;72.25;100235.88;4790759;29;20058;-90
2023/02/12 04:05:41;;;;;;;32.92;13.10;;;;;;;-6.36;71.90;100231.56;4774743;30;20047;-83
2023/02/12 04:08:11;;;;;;;27.75;12.90;;;;;;;-6.12;73.17;100241.16;4759927;30;20152;-84
2023/02/12 04:10:53;;;;;;;29.30;13.05;;;;;;;-5.66;75.78;100230.75;4761076;30;20047;-82
2023/02/12 04:13:50;;;;;;;24.52;10.93;;;;;;;-5.73;71.52;100226.41;4790274;30;20066;-83
2023/02/12 04:16:28;;;;;;;17.92;9.30;;;;;;;-5.92;70.64;100227.28;4779073;30;20051;-88
2023/02/12 04:18:54;;;;;;;23.60;9.73;;;;;;;-6.04;70.26;100238.56;4789776;30;20084;-85
2023/02/12 04:21:23;;;;;;;20.35;9.43;;;;;;;-6.13;70.73;100223.81;4794521;30;20043;-84
2023/02/12 04:24:31;;;;;;;20.25;10.55;;;;;;;-6.09;70.49;100235.09;4761502;30;20511;-88
2023/02/12 04:27:01;;;;;;;20.38;10.27;;;;;;;-6.01;70.61;100235.09;4771399;30;20055;-82
2023/02/12 04:29:54;;;;;;;22.98;10.57;;;;;;;-5.91;70.49;100234.19;4788393;30;20146;-81
2023/02/12 04:32:29;;;;;;;19.92;10.70;;;;;;;-5.98;69.62;100233.38;4788727;29;20082;-84
2023/02/12 04:35:06;;;;;;;19.25;9.55;;;;;;;-6.09;69.81;100221.19;4790216;30;20109;-88
2023/02/12 04:37:40;;;;;;;24.63;10.50;;;;;;;-5.90;70.12;100243.75;4773650;30;20059;-83
2023/02/12 04:40:11;;;;;;;29.48;10.77;;;;;;;-5.81;69.60;100246.38;4789986;30;20047;-82
2023/02/12 04:42:43;;;;;;;27.17;12.23;;;;;;;-5.74;69.78;100248.09;4758441;30;20473;-87
2023/02/12 04:45:15;;;;;;;19.45;10.55;;;;;;;-5.87;68.82;100247.25;4777501;30;20059;-87
2023/02/12 04:47:41;;;;;;;23.92;10.02;;;;;;;-5.92;69.02;100237.72;4786897;30;20063;-85
2023/02/12 04:50:07;;;;;;;27.55;12.20;;;;;;;-5.93;68.85;100241.19;4787609;30;20089;-88
2023/02/12 04:52:33;;;;;;;20.67;10.18;;;;;;;-5.91;68.66;100240.25;4789199;30;20540;-86
2023/02/12 04:54:59;;;;;;;25.33;10.52;;;;;;;-5.99;68.85;100246.38;4787088;30;20062;-85
2023/02/12 04:57:25;;;;;;;25.25;9.63;;;;;;;-6.04;68.19;100253.31;4786200;30;20420;-79
2023/02/12 04:59:50;;;;;;;19.45;9.57;;;;;;;-5.54;70.90;100249.84;4757883;30;20067;-86
2023/02/12 05:02:16;;;;;;;19.05;9.35;;;;;;;-5.74;67.46;100262.88;4769221;30;20052;-83
2023/02/12 05:04:42;;;;;;;15.93;6.72;;;;;;;-5.73;67.03;100267.19;4769318;30;20194;-81
2023/02/12 05:07:10;;;;;;;21.42;9.07;;;;;;;-5.82;66.69;100265.47;4753559;30;20106;-84
2023/02/12 05:09:36;;;;;;;15.07;8.57;;;;;;;-5.93;66.20;100262.00;4768351;30;20067;-85
2023/02/12 05:12:02;;;;;;;32.42;8.63;;;;;;;-6.03;66.88;100270.66;4768403;30;20051;-86
2023/02/12 05:14:28;;;;;;;25.98;8.45;;;;;;;-6.13;66.86;100262.84;4786233;30;20066;-87
2023/02/12 05:16:54;;;;;;;18.85;7.88;;;;;;;-6.22;66.74;100254.13;4785579;30;20757;-82
2023/02/12 05:19:19;;;;;;;14.93;7.60;;;;;;;-6.37;67.50;100257.56;4771699;30;20063;-85
2023/02/12 05:21:48;;;;;;;15.73;7.72;;;;;;;-6.44;67.62;100263.59;4786759;29;20051;-82
2023/02/12 05:24:14;;;;;;;9.33;5.03;;;;;;;-6.42;67.50;100256.69;4795502;29;20051;-87
2023/02/12 05:26:40;;;;;;;19.10;8.65;;;;;;;-6.37;67.50;100267.97;4793192;30;20138;-84
2023/02/12 05:29:05;;;;;;;14.77;7.53;;;;;;;-6.31;66.71;100261.94;4788742;30;20096;-85
2023/02/12 05:31:31;;;;;;;18.30;9.27;;;;;;;-6.24;66.30;100267.16;4788073;30;20055;-83
2023/02/12 05:33:57;;;;;;;17.02;8.07;;;;;;;-6.32;65.57;100284.44;4774021;30;20047;-83
2023/02/12 05:36:24;;;;;;;18.52;8.70;;;;;;;-6.34;65.31;100273.19;4773605;30;20385;-84
2023/02/12 05:38:50;;;;;;;13.05;7.05;;;;;;;-6.41;64.88;100284.44;4788467;29;20520;-84
2023/02/12 05:41:19;;;;;;;16.77;8.35;;;;;;;-6.36;64.71;100272.31;4772279;30;20515;-85
2023/02/12 05:43:46;;;;;;;17.95;8.88;;;;;;;-6.45;64.13;100277.50;4788021;30;20530;-85
2023/02/12 05:46:12;;;;;;;20.17;8.13;;;;;;;-6.43;63.91;100271.44;4756875;30;20101;-84
2023/02/12 05:48:38;;;;;;;19.80;8.50;;;;;;;-6.36;64.25;100269.69;4786091;30;20051;-84
2023/02/12 05:51:10;;;;;;;17.33;7.43;;;;;;;-6.63;63.59;100273.94;4786448;29;20062;-85
2023/02/12 05:53:38;;;;;;;16.52;7.93;;;;;;;-6.66;63.48;100263.50;4760259;30;20095;-86
2023/02/12 05:56:09;;;;;;;14.93;7.72;;;;;;;-6.39;63.80;100278.38;4757142;30;20086;-92
2023/02/12 05:58:35;;;;;;;17.05;7.80;;;;;;;-6.48;62.61;100267.06;4771923;30;20066;-81
2023/02/12 06:01:01;;;;;;;24.40;8.10;;;;;;;-6.32;62.53;100284.44;4786556;30;20051;-81
2023/02/12 06:03:27;;;;;;;16.45;8.40;;;;;;;-6.16;61.91;100288.00;4786635;30;20071;-84
2023/02/12 06:05:53;;;;;;;19.50;8.35;;;;;;;-6.14;61.84;100284.50;4771894;30;20083;-84
2023/02/12 06:08:19;;;;;;;19.27;9.35;;;;;;;-5.96;61.40;100294.09;4786674;30;20063;-85
2023/02/12 06:10:44;;;;;;;29.33;10.18;;;;;;;-5.82;61.10;100294.09;4771465;30;20067;-83
2023/02/12 06:13:10;;;;;;;20.40;9.95;;;;;;;-5.75;61.16;100284.56;4787370;30;20142;-85
2023/02/12 06:15:36;;;;;;;20.75;9.68;;;;;;;-5.61;60.48;100288.91;4786987;30;20056;-87
2023/02/12 06:18:02;;;;;;;21.38;10.35;;;;;;;-5.35;60.49;100298.47;4772929;30;20560;-81
2023/02/12 06:20:28;;;;;;;23.55;10.57;;;;;;;-5.39;59.32;100296.72;4772184;30;20204;-83
2023/02/12 06:22:54;;;;;;;18.90;8.73;;;;;;;-5.43;59.04;100305.41;4789166;30;20092;-87
2023/02/12 06:25:20;;;;;;;16.00;8.70;;;;;;;-5.31;58.86;100307.16;4787555;30;20047;-85
2023/02/12 06:27:46;;;;;;;15.65;8.27;;;;;;;-5.48;57.71;100307.16;4772184;30;20061;-83
2023/02/12 06:30:12;;;;;;;13.85;6.80;;;;;;;-5.67;57.96;100295.88;4772643;30;20051;-84
2023/02/12 06:32:38;;;;;;;17.58;7.45;;;;;;;-5.87;58.17;100293.22;4787476;29;20055;-87
2023/02/12 06:35:05;;;;;;;14.77;6.82;;;;;;;-5.80;57.96;100289.75;4761077;30;20162;-83
2023/02/12 06:37:31;;;;;;;10.77;5.47;;;;;;;-5.84;57.60;100290.63;4774716;30;20497;-83
2023/02/12 06:39:57;;;;;;;12.25;5.88;;;;;;;-5.79;57.57;100283.69;4774666;30;20073;-86
2023/02/12 06:42:23;;;;;;;13.18;7.25;;;;;;;-5.52;57.68;100284.59;4779434;30;20496;-85
2023/02/12 06:44:48;;;;;;;16.80;6.50;;;;;;;-5.49;56.99;100282.84;4794279;30;20055;-82
2023/02/12 06:47:14;;;;;;;8.90;4.80;;;;;;;-5.52;56.61;100284.59;4792652;30;20055;-82
2023/02/12 06:49:40;;;;;;;12.85;6.65;;;;;;;-5.67;56.71;100286.31;4791509;30;20190;-82
2023/02/12 06:52:06;;;;;;;17.60;8.68;;;;;;;-5.47;57.12;100299.34;4791073;30;20190;-85
2023/02/12 06:54:32;;;;;;;14.60;8.02;;;;;;;-5.26;56.69;100295.00;4790355;30;20059;-82
2023/02/12 06:56:58;;;;;;;18.73;8.60;;;;;;;-5.21;56.11;100288.91;4789927;30;20126;-82
2023/02/12 06:59:23;;;;;;;18.45;8.73;;;;;;;-4.96;55.67;100291.50;4791705;30;20055;-85
2023/02/12 07:01:49;;;;;;;18.63;7.55;;;;;;;-5.10;55.28;100288.03;4790388;30;20055;-85
2023/02/12 07:04:15;;;;;;;21.48;10.27;;;;;;;-4.95;56.05;100288.00;4790187;30;20456;-84
2023/02/12 07:06:41;;;;;;;20.10;10.32;;;;;;;-4.80;55.71;100301.00;4778584;30;20530;-82
2023/02/12 07:09:07;;;;;;;27.27;10.48;;;;;;;-4.73;55.42;100294.91;4774745;30;20073;-82
2023/02/12 07:11:34;;;;;;;21.08;9.63;;;;;;;-4.69;54.53;100300.97;4789657;30;20134;-82
2023/02/12 07:14:00;;;;;;;26.85;11.10;;;;;;;-4.61;55.42;100304.44;4775122;30;20059;-86
2023/02/12 07:16:26;;;;;;;25.30;10.25;;;;;;;-4.32;54.43;100306.06;4763676;30;20069;-87
2023/02/12 07:18:52;;;;;;;25.88;11.07;;;;;;;-4.38;54.56;100299.13;4795562;30;20055;-86
2023/02/12 07:21:18;;;;;;;17.30;9.13;;;;;;;-4.46;53.69;100293.06;4792786;30;20529;-88
2023/02/12 07:23:50;;;;;;;18.83;8.80;;;;;;;-4.90;53.71;100309.72;4791138;30;20108;-84
2023/02/12 07:26:17;;;;;;;11.18;6.75;;;;;;;-5.01;53.66;100309.72;4774961;30;20473;-84
2023/02/12 07:28:43;;;;;;;18.55;8.02;;;;;;;-5.31;54.48;100314.97;4774451;30;20408;-85
2023/02/12 07:31:15;;;;;;;13.40;7.10;;;;;;;-5.20;54.81;100314.09;4776045;30;20062;-84
2023/02/12 07:33:41;;;;;;;13.23;6.93;;;;;;;-5.37;54.97;100300.22;4790561;29;20081;-86
2023/02/12 07:36:14;;;;;;;16.08;8.30;;;;;;;-5.45;55.47;100317.59;4790480;29;20055;-87
2023/02/12 07:38:43;;;;;;;17.27;7.13;;;;;;;-5.70;55.52;100304.53;4789187;30;20050;-83
2023/02/12 07:41:12;;;;;;;15.88;7.20;;;;;;;-5.73;55.84;100307.13;4778339;30;20115;-91
2023/02/12 07:43:42;;;;;;;19.73;7.68;;;;;;;-5.76;56.31;100304.50;4799819;30;20082;-86
2023/02/12 07:46:17;;;;;;;20.38;9.35;;;;;;;-5.81;56.28;100314.06;4775365;30;20055;-86
2023/02/12 07:48:43;;;;;;;15.13;8.25;;;;;;;-6.00;56.63;100314.94;4775301;30;20601;-85
2023/02/12 07:51:12;;;;;;;13.85;6.30;;;;;;;-5.96;56.51;100311.47;4789610;30;20087;-86
2023/02/12 07:53:38;;;;;;;9.68;4.90;;;;;;;-6.04;56.47;100321.00;4789738;30;20051;-86
2023/02/12 07:56:16;;;;;;;11.02;6.00;;;;;;;-6.23;57.17;100315.72;4789889;30;20569;-82
2023/02/12 07:58:43;;;;;;;14.05;6.10;;;;;;;-6.14;57.13;100313.13;4791750;30;20129;-83
2023/02/12 08:01:20;;;;;;;17.00;6.35;;;;;;;-6.16;57.14;100307.06;4792928;30;20051;-84
2023/02/12 08:03:47;;;;;;;13.93;5.40;;;;;;;-6.17;56.98;100310.56;4763326;30;20067;-84
2023/02/12 08:06:19;;;;;;;14.20;6.25;;;;;;;-6.15;57.25;100308.81;4777358;30;20137;-83
2023/02/12 08:08:46;;;;;;;11.38;5.72;;;;;;;-6.17;56.78;100300.16;4777007;30;20116;-87
2023/02/12 08:11:13;;;;;;;11.38;5.88;;;;;;;-6.29;57.37;100292.28;4761782;30;20573;-82
2023/02/12 08:13:40;;;;;;;13.18;7.38;;;;;;;-6.37;57.69;100301.78;4776958;30;20043;-86
2023/02/12 08:16:09;;;;;;;14.82;7.45;;;;;;;-6.41;58.17;100295.72;4791835;30;20070;-83
2023/02/12 08:18:35;;;;;;;11.75;5.68;;;;;;;-6.32;57.65;100289.66;4774465;30;20503;-83
2023/02/12 08:21:06;;;;;;;17.90;8.35;;;;;;;-6.33;57.79;100294.88;4792413;29;20055;-82
2023/02/12 08:23:33;;;;;;;17.48;8.35;;;;;;;-6.06;57.83;100287.13;4774641;30;20051;-83
2023/02/12 08:26:05;;;;;;;16.45;8.20;;;;;;;-5.65;57.63;100294.97;4791046;30;20046;-87
2023/02/12 08:28:30;;;;;;;14.95;7.78;;;;;;;-5.44;56.47;100267.22;4775574;30;20484;-84
2023/02/12 08:31:09;;;;;;;17.65;8.98;;;;;;;-5.19;55.98;100284.56;4789601;30;20054;-85
2023/02/12 08:33:35;;;;;;;21.98;9.85;;;;;;;-5.05;55.30;100299.31;4774914;30;20133;-84
2023/02/12 08:36:08;;;;;;;19.75;10.35;;;;;;;-5.01;55.46;100295.81;4788643;30;20067;-86
2023/02/12 08:38:35;;;;;;;17.58;9.27;;;;;;;-4.52;55.34;100288.72;4788564;30;20449;-84
2023/02/12 08:41:13;;;;;;;20.48;9.52;;;;;;;-4.61;54.41;100287.91;4758499;30;20043;-88
2023/02/12 08:43:40;;;;;;;19.93;8.03;;;;;;;-4.83;54.58;100292.31;4787920;30;20051;-86
2023/02/12 08:46:13;;;;;;;11.88;6.50;;;;;;;-4.88;54.86;100290.59;4788330;30;20047;-85
2023/02/12 08:48:40;;;;;;;12.52;6.93;;;;;;;-4.89;55.06;100301.91;4789620;29;20101;-86
2023/02/12 08:51:09;;;;;;;16.33;7.60;;;;;;;-4.72;54.74;100291.41;4759591;30;20054;-81
2023/02/12 08:53:37;;;;;;;20.55;9.95;;;;;;;-4.38;54.72;100291.28;4788030;30;20497;-85
2023/02/12 08:56:03;;;;;;;20.00;10.63;;;;;;;-4.26;54.73;100280.78;4757706;30;20078;-85
2023/02/12 08:58:28;;;;;;;24.90;10.73;;;;;;;-4.08;54.13;100273.75;4787578;30;20138;-85
2023/02/12 09:00:54;;;;;;;18.08;7.68;;;;;;;-4.10;53.59;100278.09;4758700;30;20051;-86
2023/02/12 09:03:21;;;;;;;23.95;8.55;;;;;;;-4.04;54.14;100276.31;4758430;30;20104;-84
2023/02/12 09:05:48;;;;;;;23.15;10.43;;;;;;;-3.84;53.99;100265.75;4789214;29;20055;-86
2023/02/12 09:08:14;;;;;;;23.55;11.40;;;;;;;-3.79;53.65;100264.00;4794084;29;20051;-86
2023/02/12 09:10:41;;;;;;;20.90;10.70;;;;;;;-3.62;53.98;100270.81;4806779;29;20435;-85
2023/02/12 09:13:09;;;;;;;18.00;9.60;;;;;;;-3.56;53.41;100262.94;4791123;29;20062;-85
2023/02/12 09:15:42;;;;;;;18.92;9.65;;;;;;;-3.54;53.31;100261.19;4791057;29;20460;-86
2023/02/12 09:18:08;;;;;;;19.83;9.50;;;;;;;-3.07;53.70;100267.75;4775520;29;20047;-84
2023/02/12 09:20:38;;;;;;;17.23;9.70;;;;;;;-2.79;52.37;100263.06;4790763;29;20054;-84
2023/02/12 09:23:05;;;;;;;15.52;7.75;;;;;;;-2.54;51.50;100259.31;4791007;29;20130;-86
2023/02/12 09:25:33;;;;;;;17.63;9.85;;;;;;;-2.59;51.80;100255.03;4807183;29;20129;-84
2023/02/12 09:28:00;;;;;;;23.65;10.43;;;;;;;-2.39;52.21;100255.63;4775668;29;20058;-86
2023/02/12 09:30:26;;;;;;;18.98;9.80;;;;;;;-2.27;51.09;100247.59;4790560;29;20118;-84
2023/02/12 09:32:52;;;;;;;20.20;9.63;;;;;;;-2.39;51.27;100246.91;4806650;29;20042;-85
2023/02/12 09:35:18;;;;;;;16.15;8.93;;;;;;;-2.47;51.16;100233.91;4806509;29;20138;-85
2023/02/12 09:37:44;;;;;;;17.55;9.45;;;;;;;-2.27;51.25;100252.84;4792685;29;20046;-91
2023/02/12 09:40:21;;;;;;;21.40;11.50;;;;;;;-1.97;51.57;100245.44;4776877;29;20047;-84
2023/02/12 09:43:11;;;;;;;18.73;10.57;;;;;;;-1.92;51.16;100248.84;4806248;29;20054;-84
2023/02/12 09:45:59;;;;;;;19.60;10.02;;;;;;;-1.91;50.99;100249.75;4790543;29;20112;-84
2023/02/12 09:49:03;;;;;;;18.88;9.68;;;;;;;-1.83;50.89;100259.22;4790774;29;20043;-83
2023/02/12 09:51:30;;;;;;;20.00;9.07;;;;;;;-1.91;50.55;100255.84;4777624;29;20046;-90
2023/02/12 09:54:25;;;;;;;18.95;8.90;;;;;;;-2.02;51.39;100242.03;4779763;29;20087;-87
2023/02/12 09:56:57;;;;;;;18.77;8.35;;;;;;;-2.01;51.06;100251.63;4788923;29;20047;-86
2023/02/12 09:59:37;;;;;;;11.80;7.00;;;;;;;-1.94;50.83;100253.28;4776232;29;20057;-83
2023/02/12 10:02:30;;;;;;;12.18;7.22;;;;;;;-2.02;51.11;100252.53;4789569;29;20053;-85
2023/02/12 10:04:57;;;;;;;11.35;6.85;;;;;;;-2.04;50.87;100256.91;4785355;29;20119;-81
2023/02/12 10:07:58;;;;;;;10.27;6.18;;;;;;;-2.07;50.54;100257.84;4790456;29;20150;-92
2023/02/12 10:10:48;;;;;;;11.43;6.65;;;;;;;-2.03;51.02;100248.16;4788309;29;20107;-84
2023/02/12 10:13:24;;;;;;;9.57;5.75;;;;;;;-2.20;50.47;100246.63;4760331;29;20070;-85
2023/02/12 10:16:05;;;;;;;10.32;5.07;;;;;;;-1.95;50.71;100251.53;4776049;29;20083;-90
2023/02/12 10:18:49;;;;;;;9.80;6.03;;;;;;;-1.84;49.88;100257.50;4774294;29;20499;-83
2023/02/12 10:21:29;;;;;;;9.25;4.82;;;;;;;-1.88;49.30;100233.97;4805911;29;20499;-82
2023/02/12 10:24:20;;;;;;;10.05;5.35;;;;;;;-1.95;49.85;100243.69;4775054;29;20461;-84
2023/02/12 10:26:48;;;;;;;7.47;4.60;;;;;;;-1.93;50.27;100247.13;4761178;29;20051;-80
2023/02/12 10:29:19;;;;;;;9.90;5.60;;;;;;;-2.03;50.56;100246.41;4789233;29;20055;-82
2023/02/12 10:31:49;;;;;;;10.02;5.90;;;;;;;-1.66;50.91;100235.34;4776009;29;20043;-84
2023/02/12 10:34:17;;;;;;;11.35;5.95;;;;;;;-1.39;49.93;100239.31;4798272;29;20055;-83
2023/02/12 10:36:47;;;;;;;8.55;5.75;;;;;;;-1.52;49.41;100227.28;4763272;29;20145;-86
2023/02/12 10:39:23;;;;;;;10.82;6.15;;;;;;;-1.82;49.49;100231.25;4760028;29;20134;-84
2023/02/12 10:41:52;;;;;;;16.45;5.88;;;;;;;-2.13;49.93;100229.09;4789256;29;20058;-83
2023/02/12 10:44:18;;;;;;;10.80;6.50;;;;;;;-2.17;50.37;100231.78;4805219;29;20058;-80
2023/02/12 10:46:44;;;;;;;12.15;5.57;;;;;;;-2.07;50.09;100238.59;4805146;29;20043;-91
2023/02/12 10:49:14;;;;;;;9.65;5.75;;;;;;;-2.21;49.17;100229.19;4777469;29;20464;-89
2023/02/12 10:51:52;;;;;;;13.55;5.70;;;;;;;-2.06;49.65;100229.88;4777305;29;20070;-87
2023/02/12 10:54:37;;;;;;;8.75;5.40;;;;;;;-2.64;50.14;100231.50;4760035;29;20503;-87
2023/02/12 10:57:25;;;;;;;10.52;5.40;;;;;;;-2.96;50.69;100230.13;4790394;29;20067;-83
2023/02/12 10:59:53;;;;;;;7.53;4.40;;;;;;;-3.32;51.49;100233.97;4805966;29;20046;-87
2023/02/12 11:02:24;;;;;;;9.55;5.53;;;;;;;-3.29;51.34;100220.88;4788741;29;20062;-86
2023/02/12 11:04:51;;;;;;;10.88;5.95;;;;;;;-3.28;51.60;100227.84;4788938;29;20055;-85
2023/02/12 11:07:17;;;;;;;12.27;6.45;;;;;;;-3.76;52.33;100232.63;4805174;29;20059;-87
2023/02/12 11:09:45;;;;;;;14.27;6.60;;;;;;;-3.93;52.90;100227.50;4774276;29;20153;-83
2023/02/12 11:12:38;;;;;;;11.00;6.72;;;;;;;-4.37;53.04;100238.22;4796728;29;20051;-84
2023/02/12 11:15:18;;;;;;;11.18;6.32;;;;;;;-4.56;54.29;100233.97;4774001;29;20059;-84
2023/02/12 11:17:53;;;;;;;13.45;7.32;;;;;;;-4.76;54.96;100224.47;4773900;29;20499;-84
2023/02/12 11:20:22;;;;;;;14.27;6.68;;;;;;;-4.91;55.54;100227.16;4810663;29;20070;-83
2023/02/12 11:22:57;;;;;;;17.30;8.75;;;;;;;-5.00;56.20;100228.06;4766174;29;20392;-84
2023/02/12 11:25:30;;;;;;;18.50;9.25;;;;;;;-4.96;55.98;100228.91;4809646;29;20047;-85
2023/02/12 11:28:13;;;;;;;19.92;9.48;;;;;;;-5.00;56.42;100232.38;4778532;29;20051;-82
2023/02/12 11:30:51;;;;;;;17.58;9.13;;;;;;;-5.10;56.87;100238.50;4810025;29;20103;-82
2023/02/12 11:33:20;;;;;;;15.43;8.90;;;;;;;-5.17;57.18;100230.69;4776915;29;20117;-85
2023/02/12 11:36:15;;;;;;;19.67;9.57;;;;;;;-5.26;57.50;100235.94;4762965;29;20062;-83